Time;durP1;ratioP1;P1;durP2;ratioP2;P2;SDS_P1;SDS_P2;PMS_P1;PMS_P2;Temp;Humidity;BMP_temperature;BMP_pressure;BME280_temperature;BME280_humidity;BME280_pressure;Samples;Min_cycle;Max_cycle;Signal;HPM_P1;HPM_P2
2022/07/09 00:01:06;;;;;;;7.33;4.23;;;;;;;;;;5056889;27;88324;-46
2022/07/09 00:03:36;;;;;;;5.87;3.87;;;;;;;;;;5060789;27;87864;-46
2022/07/09 00:06:05;;;;;;;5.80;3.83;;;;;;;;;;5055648;27;87102;-46
2022/07/09 00:08:33;;;;;;;6.50;4.20;;;;;;;;;;5059706;27;86980;-46
2022/07/09 00:11:02;;;;;;;3.90;3.17;;;;;;;;;;5059617;27;90030;-46
2022/07/09 00:13:30;;;;;;;4.60;3.47;;;;;;;;;;5048402;27;88752;-46
2022/07/09 00:15:59;;;;;;;7.17;4.37;;;;;;;;;;5052042;27;87067;-46
2022/07/09 00:18:27;;;;;;;4.30;3.17;;;;;;;;;;5056240;27;87284;-47
2022/07/09 00:20:57;;;;;;;4.80;3.50;;;;;;;;;;5055368;27;88085;-46
2022/07/09 00:23:25;;;;;;;5.07;3.57;;;;;;;;;;5060266;27;87130;-46
2022/07/09 00:25:54;;;;;;;7.90;4.40;;;;;;;;;;5056659;27;87063;-46
2022/07/09 00:28:22;;;;;;;5.83;3.97;;;;;;;;;;5057370;27;86255;-46
2022/07/09 00:30:50;;;;;;;5.20;3.93;;;;;;;;;;5059872;27;88030;-46
2022/07/09 00:33:18;;;;;;;5.73;3.73;;;;;;;;;;5060240;27;88894;-46
2022/07/09 00:35:47;;;;;;;6.20;3.60;;;;;;;;;;5060174;27;88638;-46
2022/07/09 00:38:16;;;;;;;5.60;4.00;;;;;;;;;;5060482;27;87489;-46
2022/07/09 00:40:45;;;;;;;9.40;4.50;;;;;;;;;;5059625;27;88394;-46
2022/07/09 00:43:17;;;;;;;6.13;4.07;;;;;;;;;;5060109;27;87949;-46
2022/07/09 00:45:45;;;;;;;6.10;4.50;;;;;;;;;;5060154;27;87095;-46
2022/07/09 00:48:14;;;;;;;7.47;4.30;;;;;;;;;;5061210;27;86921;-45
2022/07/09 00:50:42;;;;;;;6.50;3.80;;;;;;;;;;5059985;27;88400;-46
2022/07/09 00:53:11;;;;;;;5.47;3.80;;;;;;;;;;5061208;27;87980;-46
2022/07/09 00:55:40;;;;;;;6.73;4.03;;;;;;;;;;5061112;27;88144;-46
2022/07/09 00:58:08;;;;;;;8.40;4.37;;;;;;;;;;5060859;27;87041;-45
2022/07/09 01:00:37;;;;;;;4.80;3.83;;;;;;;;;;5062553;27;90166;-46
2022/07/09 01:03:05;;;;;;;6.13;4.20;;;;;;;;;;5064430;27;89808;-46
2022/07/09 01:05:35;;;;;;;8.77;4.93;;;;;;;;;;5064965;27;86751;-46
2022/07/09 01:08:04;;;;;;;6.30;4.60;;;;;;;;;;5065032;27;87114;-46
2022/07/09 01:10:33;;;;;;;10.87;5.63;;;;;;;;;;5064559;27;89078;-46
2022/07/09 01:13:03;;;;;;;7.87;4.37;;;;;;;;;;5064453;27;88957;-46
2022/07/09 01:15:32;;;;;;;7.93;5.13;;;;;;;;;;5064999;27;87055;-46
2022/07/09 01:18:00;;;;;;;7.27;4.43;;;;;;;;;;5065278;27;86248;-46
2022/07/09 01:20:30;;;;;;;9.60;5.13;;;;;;;;;;5064849;27;88978;-46
2022/07/09 01:22:59;;;;;;;6.50;4.33;;;;;;;;;;5062679;27;87943;-46
2022/07/09 01:25:29;;;;;;;6.87;5.20;;;;;;;;;;5059397;27;87926;-46
2022/07/09 01:27:58;;;;;;;8.30;4.80;;;;;;;;;;5063519;27;87120;-46
2022/07/09 01:30:26;;;;;;;8.60;4.43;;;;;;;;;;5062964;27;88133;-46
2022/07/09 01:32:55;;;;;;;7.80;5.23;;;;;;;;;;5062560;27;87271;-46
2022/07/09 01:35:23;;;;;;;7.90;5.57;;;;;;;;;;5062445;27;87954;-46
2022/07/09 01:37:53;;;;;;;7.33;5.07;;;;;;;;;;5047761;27;87362;-46
2022/07/09 01:40:21;;;;;;;7.73;4.80;;;;;;;;;;5076517;27;88081;-45
2022/07/09 01:42:50;;;;;;;9.17;5.13;;;;;;;;;;5071062;27;87806;-46
2022/07/09 01:45:18;;;;;;;9.20;5.73;;;;;;;;;;5062562;27;86980;-46
2022/07/09 01:47:46;;;;;;;8.70;5.40;;;;;;;;;;5063714;27;87589;-46
2022/07/09 01:50:15;;;;;;;6.70;4.80;;;;;;;;;;5060665;27;88140;-46
2022/07/09 01:52:43;;;;;;;11.43;6.77;;;;;;;;;;5062929;27;88869;-46
2022/07/09 01:55:13;;;;;;;9.40;5.60;;;;;;;;;;5057279;27;88555;-46
2022/07/09 01:57:41;;;;;;;10.10;5.33;;;;;;;;;;5063010;27;86935;-45
2022/07/09 02:00:10;;;;;;;9.47;5.20;;;;;;;;;;5062132;27;89319;-46
2022/07/09 02:02:38;;;;;;;9.60;5.60;;;;;;;;;;5062713;27;87847;-45
2022/07/09 02:05:07;;;;;;;6.80;4.53;;;;;;;;;;5062611;27;87967;-46
2022/07/09 02:07:35;;;;;;;5.93;4.30;;;;;;;;;;5063371;27;86095;-46
2022/07/09 02:10:04;;;;;;;8.73;4.93;;;;;;;;;;5062417;27;87973;-46
2022/07/09 02:12:34;;;;;;;9.87;5.03;;;;;;;;;;5061437;27;88879;-46
2022/07/09 02:15:02;;;;;;;7.50;4.33;;;;;;;;;;5066914;27;88035;-46
2022/07/09 02:17:30;;;;;;;7.13;4.10;;;;;;;;;;5072219;27;87021;-45
2022/07/09 02:19:59;;;;;;;6.10;3.60;;;;;;;;;;5062226;27;89103;-46
2022/07/09 02:22:27;;;;;;;6.93;4.00;;;;;;;;;;5062715;27;89043;-46
2022/07/09 02:24:55;;;;;;;5.37;3.87;;;;;;;;;;5057557;27;87045;-46
2022/07/09 02:27:23;;;;;;;4.97;3.50;;;;;;;;;;5047085;27;87072;-46
2022/07/09 02:29:53;;;;;;;7.43;3.97;;;;;;;;;;5068005;27;88047;-46
2022/07/09 02:32:21;;;;;;;7.30;4.17;;;;;;;;;;5062186;27;88893;-46
2022/07/09 02:34:50;;;;;;;4.27;3.10;;;;;;;;;;5061394;27;87043;-46
2022/07/09 02:37:18;;;;;;;5.30;3.00;;;;;;;;;;5061101;27;88524;-46
2022/07/09 02:39:46;;;;;;;6.33;4.37;;;;;;;;;;5059976;27;89698;-45
2022/07/09 02:42:15;;;;;;;6.17;3.57;;;;;;;;;;5071694;27;89816;-46
2022/07/09 02:44:43;;;;;;;7.00;3.97;;;;;;;;;;5060621;27;87042;-46
2022/07/09 02:47:13;;;;;;;7.17;3.40;;;;;;;;;;5061981;27;86846;-46
2022/07/09 02:49:41;;;;;;;5.70;3.73;;;;;;;;;;5061102;27;88282;-46
2022/07/09 02:52:09;;;;;;;6.80;4.60;;;;;;;;;;5060704;27;88842;-46
2022/07/09 02:54:38;;;;;;;5.60;4.07;;;;;;;;;;5061010;27;89267;-46
2022/07/09 02:57:08;;;;;;;6.60;4.07;;;;;;;;;;5062540;27;87822;-46
2022/07/09 02:59:36;;;;;;;6.47;3.90;;;;;;;;;;5061762;27;88342;-46
2022/07/09 03:02:04;;;;;;;6.07;3.63;;;;;;;;;;5061784;27;88942;-46
2022/07/09 03:04:34;;;;;;;6.47;4.27;;;;;;;;;;5061360;27;87912;-46
2022/07/09 03:07:02;;;;;;;5.90;3.40;;;;;;;;;;5061584;27;87311;-46
2022/07/09 03:09:31;;;;;;;6.83;4.53;;;;;;;;;;5061169;27;89378;-46
2022/07/09 03:11:59;;;;;;;5.30;4.03;;;;;;;;;;5063106;27;87250;-46
2022/07/09 03:14:27;;;;;;;6.67;3.83;;;;;;;;;;5077424;27;87308;-46
2022/07/09 03:16:55;;;;;;;7.20;3.33;;;;;;;;;;5061896;27;86979;-45
2022/07/09 03:19:24;;;;;;;5.00;3.53;;;;;;;;;;5061860;27;87334;-46
2022/07/09 03:21:54;;;;;;;6.57;4.50;;;;;;;;;;5061334;27;87993;-45
2022/07/09 03:24:22;;;;;;;6.70;4.60;;;;;;;;;;5061474;27;87116;-45
2022/07/09 03:26:50;;;;;;;4.63;3.47;;;;;;;;;;5060681;27;87075;-46
2022/07/09 03:29:19;;;;;;;4.67;3.50;;;;;;;;;;5061534;27;88796;-46
2022/07/09 03:31:47;;;;;;;6.37;3.80;;;;;;;;;;5060884;27;87496;-45
2022/07/09 03:34:16;;;;;;;5.17;3.93;;;;;;;;;;5061333;27;87549;-46
2022/07/09 03:36:44;;;;;;;7.37;3.90;;;;;;;;;;5060624;27;87152;-46
2022/07/09 03:39:14;;;;;;;5.57;3.83;;;;;;;;;;5061720;27;88150;-46
2022/07/09 03:41:42;;;;;;;6.00;3.70;;;;;;;;;;5061065;27;88997;-46
2022/07/09 03:44:10;;;;;;;5.17;3.90;;;;;;;;;;5060884;27;87045;-46
2022/07/09 03:46:38;;;;;;;5.77;3.63;;;;;;;;;;5074798;27;86567;-46
2022/07/09 03:49:07;;;;;;;6.47;3.97;;;;;;;;;;5059989;27;89254;-46
2022/07/09 03:51:35;;;;;;;6.17;4.07;;;;;;;;;;5060388;27;87150;-46
2022/07/09 03:54:04;;;;;;;7.27;4.33;;;;;;;;;;5061297;27;88239;-46
2022/07/09 03:56:33;;;;;;;6.63;4.03;;;;;;;;;;5060115;27;87021;-46
2022/07/09 03:59:02;;;;;;;9.27;4.43;;;;;;;;;;5060536;27;88298;-46
2022/07/09 04:01:30;;;;;;;7.07;4.77;;;;;;;;;;5060849;27;87885;-46
2022/07/09 04:03:59;;;;;;;5.87;4.03;;;;;;;;;;5060995;27;87038;-45
2022/07/09 04:06:27;;;;;;;7.80;4.27;;;;;;;;;;5059611;27;87215;-46
2022/07/09 04:08:56;;;;;;;6.10;4.20;;;;;;;;;;5061030;27;89411;-45
2022/07/09 04:11:24;;;;;;;7.20;4.33;;;;;;;;;;5054863;27;87963;-46
2022/07/09 04:13:54;;;;;;;7.03;4.43;;;;;;;;;;5081377;27;86918;-46
2022/07/09 04:16:22;;;;;;;8.47;4.73;;;;;;;;;;5060892;27;87141;-46
2022/07/09 04:18:50;;;;;;;5.47;4.17;;;;;;;;;;5059894;27;88897;-46
2022/07/09 04:21:21;;;;;;;6.00;4.30;;;;;;;;;;5060101;27;89767;-45
2022/07/09 04:23:49;;;;;;;6.77;4.30;;;;;;;;;;5054294;27;87034;-46
2022/07/09 04:26:18;;;;;;;7.10;4.37;;;;;;;;;;5058294;27;87100;-45
2022/07/09 04:28:47;;;;;;;5.87;3.60;;;;;;;;;;5059478;27;88089;-46
2022/07/09 04:31:19;;;;;;;6.60;3.90;;;;;;;;;;5059125;27;88899;-45
2022/07/09 04:33:47;;;;;;;7.63;4.70;;;;;;;;;;5057156;27;87166;-46
2022/07/09 04:36:16;;;;;;;6.83;4.17;;;;;;;;;;5051992;27;88248;-46
2022/07/09 04:38:44;;;;;;;7.47;4.93;;;;;;;;;;5052206;27;90358;-46
2022/07/09 04:41:13;;;;;;;9.77;4.70;;;;;;;;;;5053178;27;88001;-46
2022/07/09 04:43:41;;;;;;;6.40;4.33;;;;;;;;;;5058276;27;88031;-47
2022/07/09 04:46:10;;;;;;;6.87;4.53;;;;;;;;;;5055986;27;88581;-46
2022/07/09 04:48:40;;;;;;;9.27;5.17;;;;;;;;;;5062876;27;88977;-46
2022/07/09 04:51:08;;;;;;;6.37;4.10;;;;;;;;;;5054375;27;88870;-46
2022/07/09 04:53:36;;;;;;;8.73;4.93;;;;;;;;;;5057743;27;87154;-46
2022/07/09 04:56:06;;;;;;;6.90;4.87;;;;;;;;;;5056931;27;87176;-47
2022/07/09 04:58:36;;;;;;;6.67;4.77;;;;;;;;;;5058519;27;89189;-46
2022/07/09 05:01:05;;;;;;;6.23;3.87;;;;;;;;;;5056382;27;87984;-49
2022/07/09 05:03:33;;;;;;;5.30;3.97;;;;;;;;;;5057091;27;87466;-48
2022/07/09 05:06:03;;;;;;;4.63;3.40;;;;;;;;;;5060766;27;86918;-48
2022/07/09 05:08:31;;;;;;;7.47;3.93;;;;;;;;;;5059154;27;90137;-47
2022/07/09 05:11:00;;;;;;;4.97;3.57;;;;;;;;;;5059870;27;88480;-47
2022/07/09 05:13:28;;;;;;;6.90;4.23;;;;;;;;;;5058416;27;87918;-48
2022/07/09 05:15:57;;;;;;;8.67;4.23;;;;;;;;;;5057955;27;87336;-47
2022/07/09 05:18:26;;;;;;;5.00;3.83;;;;;;;;;;5065636;27;88297;-48
2022/07/09 05:20:54;;;;;;;6.17;4.23;;;;;;;;;;5061299;27;86898;-47
2022/07/09 05:23:24;;;;;;;5.43;3.97;;;;;;;;;;5059254;27;87142;-47
2022/07/09 05:25:53;;;;;;;4.40;4.00;;;;;;;;;;5059201;27;86309;-47
2022/07/09 05:28:21;;;;;;;6.27;3.80;;;;;;;;;;5058789;27;88123;-47
2022/07/09 05:30:49;;;;;;;5.40;3.40;;;;;;;;;;5057846;27;88839;-48
2022/07/09 05:33:38;;;;;;;5.13;3.10;;;;;;;;;;5051106;27;88290;-47
2022/07/09 05:36:06;;;;;;;5.40;3.53;;;;;;;;;;5058171;27;87004;-47
2022/07/09 05:38:36;;;;;;;5.83;3.57;;;;;;;;;;5058703;27;87158;-49
2022/07/09 05:41:05;;;;;;;4.23;3.00;;;;;;;;;;5058761;27;87877;-47
2022/07/09 05:43:33;;;;;;;3.47;3.03;;;;;;;;;;5060456;27;87507;-47
2022/07/09 05:46:01;;;;;;;4.07;3.30;;;;;;;;;;5072637;27;87320;-47
2022/07/09 05:48:30;;;;;;;7.33;3.30;;;;;;;;;;5052978;27;89259;-47
2022/07/09 05:50:58;;;;;;;3.77;3.10;;;;;;;;;;5061783;27;88855;-47
2022/07/09 05:53:27;;;;;;;6.27;3.70;;;;;;;;;;5062174;27;87159;-47
2022/07/09 05:55:56;;;;;;;5.07;3.63;;;;;;;;;;5061296;27;87165;-47
2022/07/09 05:58:25;;;;;;;5.43;3.47;;;;;;;;;;5059415;27;89051;-47
2022/07/09 06:00:53;;;;;;;4.23;2.80;;;;;;;;;;5061433;27;88489;-48
2022/07/09 06:03:22;;;;;;;6.87;3.30;;;;;;;;;;5061942;27;87150;-47
2022/07/09 06:05:50;;;;;;;4.43;3.53;;;;;;;;;;5061000;27;87575;-47
2022/07/09 06:08:18;;;;;;;4.07;3.10;;;;;;;;;;5060209;27;88123;-47
2022/07/09 06:10:47;;;;;;;5.77;3.07;;;;;;;;;;5061835;27;89098;-47
2022/07/09 06:13:16;;;;;;;5.50;3.13;;;;;;;;;;5063258;27;87170;-47
2022/07/09 06:15:44;;;;;;;4.23;3.17;;;;;;;;;;5062761;27;86340;-47
2022/07/09 06:18:13;;;;;;;5.47;3.60;;;;;;;;;;5069780;27;89162;-46
2022/07/09 06:20:41;;;;;;;6.53;3.70;;;;;;;;;;5066471;27;86927;-46
2022/07/09 06:23:09;;;;;;;3.90;2.93;;;;;;;;;;5062390;27;87993;-47
2022/07/09 06:25:38;;;;;;;3.90;2.77;;;;;;;;;;5061772;27;87207;-46
2022/07/09 06:28:06;;;;;;;3.83;3.27;;;;;;;;;;5061066;27;89246;-46
2022/07/09 06:30:36;;;;;;;4.20;3.00;;;;;;;;;;5060672;27;89079;-46
2022/07/09 06:33:04;;;;;;;6.90;3.97;;;;;;;;;;5061779;27;86929;-46
2022/07/09 06:35:33;;;;;;;6.87;4.30;;;;;;;;;;5060768;27;87860;-45
2022/07/09 06:38:01;;;;;;;6.63;4.07;;;;;;;;;;5060330;27;88868;-46
2022/07/09 06:40:30;;;;;;;9.70;4.70;;;;;;;;;;5060421;27;87855;-46
2022/07/09 06:42:58;;;;;;;6.40;3.97;;;;;;;;;;5060977;27;86891;-46
2022/07/09 06:45:26;;;;;;;7.33;4.50;;;;;;;;;;5075554;27;87510;-46
2022/07/09 06:47:56;;;;;;;9.07;5.10;;;;;;;;;;5066422;27;90150;-46
2022/07/09 06:50:24;;;;;;;9.03;5.83;;;;;;;;;;5060376;27;88767;-46
2022/07/09 06:52:53;;;;;;;10.73;5.87;;;;;;;;;;5061215;27;87208;-46
2022/07/09 06:55:21;;;;;;;9.40;5.70;;;;;;;;;;5061798;27;89300;-46
2022/07/09 06:57:49;;;;;;;9.23;5.93;;;;;;;;;;5061110;27;88124;-46
2022/07/09 07:00:18;;;;;;;9.37;6.03;;;;;;;;;;5059254;27;87957;-46
2022/07/09 07:02:46;;;;;;;9.43;5.37;;;;;;;;;;5065328;27;86998;-46
2022/07/09 07:05:16;;;;;;;8.37;5.20;;;;;;;;;;5061766;27;86332;-48
2022/07/09 07:07:45;;;;;;;7.57;4.30;;;;;;;;;;5061201;27;88075;-46
2022/07/09 07:10:14;;;;;;;6.43;4.53;;;;;;;;;;5059482;27;87238;-46
2022/07/09 07:12:42;;;;;;;9.83;5.00;;;;;;;;;;5060723;27;88257;-46
2022/07/09 07:15:10;;;;;;;7.80;4.77;;;;;;;;;;5070744;27;87174;-46
2022/07/09 07:17:39;;;;;;;6.43;4.47;;;;;;;;;;5079624;27;89534;-46
2022/07/09 07:20:08;;;;;;;5.53;4.20;;;;;;;;;;5077472;27;87419;-46
2022/07/09 07:22:37;;;;;;;8.17;5.37;;;;;;;;;;5063347;27;86996;-46
2022/07/09 07:25:06;;;;;;;4.60;3.37;;;;;;;;;;5062136;27;87057;-46
2022/07/09 07:27:34;;;;;;;4.90;4.03;;;;;;;;;;5074406;27;88145;-46
2022/07/09 07:30:02;;;;;;;4.17;3.30;;;;;;;;;;5078661;27;87905;-46
2022/07/09 07:32:31;;;;;;;4.23;3.30;;;;;;;;;;5060142;27;87125;-46
2022/07/09 07:34:59;;;;;;;6.43;3.77;;;;;;;;;;5062035;27;86904;-46
2022/07/09 07:37:27;;;;;;;5.73;3.40;;;;;;;;;;5061465;27;89029;-46
2022/07/09 07:39:57;;;;;;;3.10;2.30;;;;;;;;;;5061902;27;87444;-46
2022/07/09 07:42:25;;;;;;;5.93;3.37;;;;;;;;;;5061563;27;87025;-46
2022/07/09 07:44:54;;;;;;;4.03;3.07;;;;;;;;;;5061916;27;87246;-46
2022/07/09 07:47:22;;;;;;;5.53;3.00;;;;;;;;;;5061291;27;88222;-46
2022/07/09 07:49:51;;;;;;;4.30;2.57;;;;;;;;;;5059916;27;87886;-46
2022/07/09 07:52:20;;;;;;;5.60;3.03;;;;;;;;;;5061725;27;87020;-48
2022/07/09 07:54:48;;;;;;;5.97;3.00;;;;;;;;;;5062334;27;86210;-47
2022/07/09 07:57:17;;;;;;;4.80;2.93;;;;;;;;;;5061101;27;86997;-49
2022/07/09 07:59:46;;;;;;;4.30;2.67;;;;;;;;;;5061429;27;89006;-47
2022/07/09 08:02:14;;;;;;;7.50;2.97;;;;;;;;;;5061904;27;88015;-47
2022/07/09 08:04:43;;;;;;;2.67;2.00;;;;;;;;;;5062227;27;88574;-47
2022/07/09 08:07:11;;;;;;;3.10;2.10;;;;;;;;;;5061739;27;88247;-48
2022/07/09 08:09:40;;;;;;;3.83;1.50;;;;;;;;;;5059376;27;87961;-47
2022/07/09 08:12:09;;;;;;;2.40;1.63;;;;;;;;;;5061472;27;87323;-47
2022/07/09 08:14:39;;;;;;;2.27;1.70;;;;;;;;;;5063812;27;87122;-47
2022/07/09 08:17:07;;;;;;;3.33;1.77;;;;;;;;;;5061335;27;88077;-47
2022/07/09 08:19:35;;;;;;;2.27;1.37;;;;;;;;;;5062087;27;87884;-46
2022/07/09 08:22:04;;;;;;;1.30;1.17;;;;;;;;;;5060762;27;87664;-46
2022/07/09 08:24:32;;;;;;;1.60;1.10;;;;;;;;;;5061643;27;86978;-46
2022/07/09 08:27:01;;;;;;;3.57;1.20;;;;;;;;;;5060954;27;90093;-47
2022/07/09 08:29:29;;;;;;;1.60;1.20;;;;;;;;;;5061381;27;88522;-46
2022/07/09 08:31:59;;;;;;;1.07;0.80;;;;;;;;;;5062170;27;87034;-46
2022/07/09 08:34:27;;;;;;;1.10;0.90;;;;;;;;;;5062177;27;87040;-47
2022/07/09 08:36:56;;;;;;;1.50;1.40;;;;;;;;;;5061522;27;88267;-46
2022/07/09 08:39:24;;;;;;;3.30;1.00;;;;;;;;;;5062451;27;87543;-46
2022/07/09 08:41:52;;;;;;;0.60;0.60;;;;;;;;;;5060208;27;87032;-46
2022/07/09 08:44:21;;;;;;;1.53;0.90;;;;;;;;;;5060499;27;86551;-46
2022/07/09 08:46:49;;;;;;;1.40;0.67;;;;;;;;;;5059823;27;88249;-48
2022/07/09 08:49:19;;;;;;;1.33;0.93;;;;;;;;;;5059734;27;87155;-48
2022/07/09 08:51:47;;;;;;;1.03;0.60;;;;;;;;;;5060910;27;87969;-47
2022/07/09 08:54:16;;;;;;;0.70;0.70;;;;;;;;;;5061841;27;87164;-46
2022/07/09 08:56:44;;;;;;;1.50;0.70;;;;;;;;;;5061188;27;88322;-47
2022/07/09 08:59:12;;;;;;;1.73;0.70;;;;;;;;;;5059507;27;87891;-47
2022/07/09 09:01:40;;;;;;;1.80;1.20;;;;;;;;;;5058667;27;87075;-47
2022/07/09 09:04:09;;;;;;;1.10;1.00;;;;;;;;;;5058333;27;86814;-46
2022/07/09 09:06:39;;;;;;;1.63;0.90;;;;;;;;;;5059286;27;87941;-47
2022/07/09 09:09:11;;;;;;;2.47;1.20;;;;;;;;;;5057870;27;87851;-47
2022/07/09 09:11:39;;;;;;;1.60;0.90;;;;;;;;;;5059971;27;87122;-46
2022/07/09 09:14:07;;;;;;;1.00;0.80;;;;;;;;;;5056841;27;86979;-47
2022/07/09 09:16:42;;;;;;;2.67;0.90;;;;;;;;;;5058715;27;88052;-47
2022/07/09 09:19:10;;;;;;;0.87;0.50;;;;;;;;;;5057114;27;89937;-46
2022/07/09 09:21:40;;;;;;;1.20;0.87;;;;;;;;;;5061428;27;87301;-45
2022/07/09 09:24:08;;;;;;;1.00;0.70;;;;;;;;;;5060517;27;87568;-46
2022/07/09 09:26:37;;;;;;;3.10;1.00;;;;;;;;;;5062322;27;88304;-46
2022/07/09 09:29:07;;;;;;;1.20;1.00;;;;;;;;;;5060846;27;87771;-46
2022/07/09 09:31:36;;;;;;;1.57;0.70;;;;;;;;;;5064123;27;87016;-46
2022/07/09 09:34:14;;;;;;;0.67;0.60;;;;;;;;;;5064072;27;86390;-46
2022/07/09 09:36:44;;;;;;;1.77;0.90;;;;;;;;;;5062516;27;88102;-46
2022/07/09 09:39:13;;;;;;;0.90;0.70;;;;;;;;;;5062293;27;87817;-46
2022/07/09 09:41:42;;;;;;;1.23;0.90;;;;;;;;;;5064021;27;87991;-46
2022/07/09 09:44:10;;;;;;;2.03;1.20;;;;;;;;;;5064908;27;87031;-46
2022/07/09 09:46:39;;;;;;;0.70;0.70;;;;;;;;;;5064427;27;88145;-46
2022/07/09 09:49:08;;;;;;;5.57;1.07;;;;;;;;;;5064386;27;87899;-46
2022/07/09 09:51:37;;;;;;;0.93;0.90;;;;;;;;;;5064489;27;86816;-46
2022/07/09 09:54:07;;;;;;;3.50;0.80;;;;;;;;;;5064848;27;87032;-46
2022/07/09 09:56:35;;;;;;;1.40;1.03;;;;;;;;;;5064141;27;88210;-46
2022/07/09 09:59:04;;;;;;;1.53;1.03;;;;;;;;;;5064610;27;88917;-46
2022/07/09 10:01:32;;;;;;;1.33;1.10;;;;;;;;;;5064430;27;87031;-46
2022/07/09 10:04:00;;;;;;;2.20;1.00;;;;;;;;;;5064628;27;87043;-46
2022/07/09 10:06:29;;;;;;;2.13;1.33;;;;;;;;;;5063410;27;88966;-46
2022/07/09 10:08:57;;;;;;;1.33;1.00;;;;;;;;;;5063907;27;88779;-46
2022/07/09 10:11:27;;;;;;;1.77;1.27;;;;;;;;;;5064478;27;86753;-46
2022/07/09 10:13:55;;;;;;;2.10;1.20;;;;;;;;;;5064567;27;86880;-46
2022/07/09 10:16:34;;;;;;;1.33;1.23;;;;;;;;;;5064344;27;89207;-46
2022/07/09 10:19:02;;;;;;;1.60;1.30;;;;;;;;;;5064154;27;87648;-47
2022/07/09 10:21:35;;;;;;;1.70;1.40;;;;;;;;;;5064341;27;87083;-47
2022/07/09 10:24:03;;;;;;;1.37;1.27;;;;;;;;;;5063994;27;86266;-47
2022/07/09 10:26:41;;;;;;;2.97;1.00;;;;;;;;;;5062910;27;88259;-46
2022/07/09 10:29:19;;;;;;;2.07;1.20;;;;;;;;;;5063674;27;88887;-46
2022/07/09 10:31:48;;;;;;;2.23;1.20;;;;;;;;;;5062781;27;87961;-46
2022/07/09 10:34:21;;;;;;;1.90;1.70;;;;;;;;;;5064050;27;86923;-46
2022/07/09 10:36:57;;;;;;;2.87;1.40;;;;;;;;;;5063829;27;87072;-47
2022/07/09 10:39:26;;;;;;;3.50;1.20;;;;;;;;;;5063997;27;89017;-47
2022/07/09 10:42:03;;;;;;;1.47;1.20;;;;;;;;;;5064397;27;86923;-47
2022/07/09 10:44:35;;;;;;;2.40;1.47;;;;;;;;;;5062944;27;87055;-47
2022/07/09 10:47:03;;;;;;;0.87;0.80;;;;;;;;;;5062132;27;88095;-47
2022/07/09 10:49:32;;;;;;;2.13;1.00;;;;;;;;;;5063950;27;88754;-46
2022/07/09 10:52:00;;;;;;;0.80;0.80;;;;;;;;;;5064274;27;86973;-46
2022/07/09 10:54:34;;;;;;;1.10;0.90;;;;;;;;;;5063889;27;86851;-46
2022/07/09 10:57:04;;;;;;;2.33;1.00;;;;;;;;;;5063065;27;90317;-46
2022/07/09 10:59:32;;;;;;;2.13;1.40;;;;;;;;;;5062828;27;88791;-46
2022/07/09 11:02:00;;;;;;;1.23;1.10;;;;;;;;;;5063489;27;86828;-46
2022/07/09 11:04:29;;;;;;;1.07;0.97;;;;;;;;;;5063565;27;87054;-46
2022/07/09 11:06:59;;;;;;;1.30;1.20;;;;;;;;;;5062274;27;87194;-47
2022/07/09 11:09:29;;;;;;;1.27;1.00;;;;;;;;;;5061412;27;88522;-46
2022/07/09 11:11:57;;;;;;;1.57;1.23;;;;;;;;;;5063196;27;86808;-46
2022/07/09 11:14:27;;;;;;;5.13;1.53;;;;;;;;;;5063830;27;86185;-46
2022/07/09 11:16:55;;;;;;;1.13;1.03;;;;;;;;;;5062918;27;88241;-46
2022/07/09 11:19:24;;;;;;;0.97;0.83;;;;;;;;;;5062484;27;88844;-47
2022/07/09 11:22:01;;;;;;;4.63;1.30;;;;;;;;;;5062488;27;87896;-46
2022/07/09 11:24:30;;;;;;;2.43;1.00;;;;;;;;;;5063491;27;87174;-46
2022/07/09 11:27:02;;;;;;;2.37;1.10;;;;;;;;;;5061845;27;88071;-46
2022/07/09 11:29:32;;;;;;;1.77;1.03;;;;;;;;;;5061670;27;88078;-46
2022/07/09 11:32:01;;;;;;;1.17;1.00;;;;;;;;;;5062002;27;86861;-46
2022/07/09 11:34:30;;;;;;;3.60;1.13;;;;;;;;;;5062133;27;86975;-46
2022/07/09 11:36:58;;;;;;;3.43;1.23;;;;;;;;;;5061364;27;88211;-47
2022/07/09 11:39:27;;;;;;;1.40;0.60;;;;;;;;;;5062263;27;87796;-47
2022/07/09 11:41:55;;;;;;;1.33;1.00;;;;;;;;;;5062183;27;86867;-46
2022/07/09 11:44:24;;;;;;;1.43;0.83;;;;;;;;;;5061918;27;87017;-46
2022/07/09 11:47:10;;;;;;;1.10;0.83;;;;;;;;;;5061094;27;89492;-47
2022/07/09 11:49:40;;;;;;;0.97;0.83;;;;;;;;;;5061528;27;89715;-46
2022/07/09 11:52:18;;;;;;;1.23;0.80;;;;;;;;;;5061416;27;86870;-46
2022/07/09 11:54:59;;;;;;;2.23;0.90;;;;;;;;;;5061709;27;87388;-46
2022/07/09 11:57:27;;;;;;;1.03;0.80;;;;;;;;;;5061878;27;89322;-46
2022/07/09 11:59:55;;;;;;;2.03;1.00;;;;;;;;;;5062270;27;87940;-47
2022/07/09 12:02:24;;;;;;;1.60;1.10;;;;;;;;;;5062726;27;87081;-47
2022/07/09 12:04:54;;;;;;;1.97;1.07;;;;;;;;;;5060430;27;86707;-47
2022/07/09 12:07:23;;;;;;;2.30;0.80;;;;;;;;;;5060956;27;89117;-46
2022/07/09 12:09:58;;;;;;;3.00;1.07;;;;;;;;;;5061110;27;86975;-46
2022/07/09 12:12:27;;;;;;;1.10;1.00;;;;;;;;;;5061581;27;87960;-46
2022/07/09 12:14:55;;;;;;;2.00;0.77;;;;;;;;;;5061975;27;86992;-46
2022/07/09 12:17:24;;;;;;;0.50;0.50;;;;;;;;;;5062152;27;87163;-47
2022/07/09 12:19:52;;;;;;;2.03;1.20;;;;;;;;;;5061831;27;87684;-47
2022/07/09 12:22:23;;;;;;;1.97;1.13;;;;;;;;;;5061997;27;87349;-46
2022/07/09 12:24:51;;;;;;;4.07;1.60;;;;;;;;;;5062016;27;86949;-46
2022/07/09 12:27:20;;;;;;;4.77;1.67;;;;;;;;;;5061114;27;89367;-46
2022/07/09 12:29:50;;;;;;;1.93;1.50;;;;;;;;;;5061137;27;87746;-47
2022/07/09 12:32:19;;;;;;;7.30;2.53;;;;;;;;;;5061311;27;86894;-47
2022/07/09 12:34:48;;;;;;;8.80;3.10;;;;;;;;;;5060628;27;86951;-47
2022/07/09 12:37:16;;;;;;;6.30;2.50;;;;;;;;;;5059949;27;90068;-47
2022/07/09 12:39:45;;;;;;;4.87;2.80;;;;;;;;;;5060497;27;88744;-46
2022/07/09 12:42:18;;;;;;;3.70;1.80;;;;;;;;;;5059560;27;88232;-47
2022/07/09 12:44:47;;;;;;;7.83;2.63;;;;;;;;;;5059542;27;87008;-46
2022/07/09 12:47:15;;;;;;;3.93;2.43;;;;;;;;;;5059989;27;89100;-47
2022/07/09 12:49:44;;;;;;;3.30;2.10;;;;;;;;;;5060093;27;88136;-46
2022/07/09 12:52:12;;;;;;;6.93;2.23;;;;;;;;;;5060267;27;87021;-46
2022/07/09 12:54:40;;;;;;;6.83;2.80;;;;;;;;;;5059986;27;86223;-46
2022/07/09 12:57:10;;;;;;;3.13;1.60;;;;;;;;;;5061019;27;89147;-46
2022/07/09 12:59:38;;;;;;;3.37;2.03;;;;;;;;;;5059262;27;87959;-46
2022/07/09 13:02:07;;;;;;;11.07;1.93;;;;;;;;;;5059999;27;87996;-46
2022/07/09 13:04:35;;;;;;;4.30;1.70;;;;;;;;;;5054331;27;87137;-46
2022/07/09 13:07:04;;;;;;;4.17;2.13;;;;;;;;;;5054242;27;89157;-46
2022/07/09 13:09:33;;;;;;;4.70;2.73;;;;;;;;;;5054123;27;87876;-46
2022/07/09 13:12:02;;;;;;;8.90;2.47;;;;;;;;;;5059651;27;87224;-46
2022/07/09 13:14:32;;;;;;;6.90;2.23;;;;;;;;;;5059277;27;87125;-46
2022/07/09 13:17:00;;;;;;;10.47;2.93;;;;;;;;;;5054033;27;89236;-46
2022/07/09 13:19:49;;;;;;;4.77;1.93;;;;;;;;;;5057651;27;87446;-46
2022/07/09 13:22:17;;;;;;;3.93;2.17;;;;;;;;;;5055356;27;87008;-47
2022/07/09 13:24:45;;;;;;;3.83;2.23;;;;;;;;;;5057858;27;87451;-46
2022/07/09 13:27:13;;;;;;;5.63;2.30;;;;;;;;;;5048337;27;88966;-46
2022/07/09 13:29:43;;;;;;;3.50;2.10;;;;;;;;;;5048639;27;89747;-47
2022/07/09 13:32:11;;;;;;;4.97;2.53;;;;;;;;;;5059092;27;86902;-46
2022/07/09 13:34:48;;;;;;;3.70;2.03;;;;;;;;;;5059769;27;86930;-46
2022/07/09 13:37:16;;;;;;;3.53;2.27;;;;;;;;;;5058404;27;89319;-47
2022/07/09 13:39:45;;;;;;;9.27;2.53;;;;;;;;;;5058303;27;89010;-46
2022/07/09 13:42:13;;;;;;;3.33;2.13;;;;;;;;;;5058966;27;87048;-46
2022/07/09 13:44:42;;;;;;;4.20;2.27;;;;;;;;;;5059557;27;86742;-47
2022/07/09 13:47:12;;;;;;;3.60;1.43;;;;;;;;;;5059139;27;88642;-46
2022/07/09 13:49:40;;;;;;;2.37;1.87;;;;;;;;;;5060472;27;87643;-46
2022/07/09 13:52:09;;;;;;;3.67;1.83;;;;;;;;;;5061196;27;87844;-47
2022/07/09 13:54:37;;;;;;;3.23;1.53;;;;;;;;;;5061517;27;87120;-46
2022/07/09 13:57:06;;;;;;;4.23;1.50;;;;;;;;;;5059976;27;89163;-47
2022/07/09 13:59:34;;;;;;;2.10;1.53;;;;;;;;;;5060204;27;88898;-46
2022/07/09 14:02:03;;;;;;;2.07;1.47;;;;;;;;;;5060591;27;87008;-46
2022/07/09 14:04:32;;;;;;;2.03;1.60;;;;;;;;;;5058698;27;86951;-46
2022/07/09 14:07:01;;;;;;;2.47;1.30;;;;;;;;;;5059042;27;87514;-46
2022/07/09 14:09:29;;;;;;;2.47;1.27;;;;;;;;;;5063121;27;87956;-46
2022/07/09 14:11:58;;;;;;;3.23;1.23;;;;;;;;;;5063209;27;87133;-46
2022/07/09 14:14:26;;;;;;;5.43;1.80;;;;;;;;;;5062619;27;87103;-47
2022/07/09 14:16:54;;;;;;;2.50;1.30;;;;;;;;;;5061877;27;88386;-46
2022/07/09 14:19:23;;;;;;;3.20;1.77;;;;;;;;;;5061905;27;90017;-46
2022/07/09 14:21:52;;;;;;;2.27;1.30;;;;;;;;;;5062545;27;86903;-46
2022/07/09 14:24:20;;;;;;;1.47;1.37;;;;;;;;;;5062513;27;87169;-47
2022/07/09 14:26:49;;;;;;;1.63;1.20;;;;;;;;;;5061832;27;88297;-47
2022/07/09 14:29:17;;;;;;;4.10;1.90;;;;;;;;;;5063271;27;87548;-46
2022/07/09 14:31:51;;;;;;;3.70;1.33;;;;;;;;;;5064137;27;87120;-47
2022/07/09 14:34:19;;;;;;;1.40;1.20;;;;;;;;;;5064612;27;86199;-47
2022/07/09 14:36:47;;;;;;;1.90;1.20;;;;;;;;;;5063806;27;88132;-47
2022/07/09 14:39:17;;;;;;;1.53;1.10;;;;;;;;;;5063036;27;88921;-46
2022/07/09 14:41:46;;;;;;;1.13;0.90;;;;;;;;;;5063076;27;87920;-47
2022/07/09 14:44:14;;;;;;;2.17;0.80;;;;;;;;;;5063490;27;87029;-47
2022/07/09 14:46:42;;;;;;;1.40;1.00;;;;;;;;;;5063607;27;89173;-46
2022/07/09 14:49:11;;;;;;;5.47;1.33;;;;;;;;;;5063310;27;87881;-46
2022/07/09 14:51:39;;;;;;;1.73;1.00;;;;;;;;;;5063686;27;87020;-46
2022/07/09 14:54:07;;;;;;;1.23;0.60;;;;;;;;;;5063975;27;86896;-46